sensor_id;sensor_type;location;lat;lon;timestamp;P1;durP1;ratioP1;P2;durP2;ratioP2
24159;SDS011;62385;41.594;23.808;2023-03-11T00:00:07;4.82;;;0.50;;
24159;SDS011;62385;41.594;23.808;2023-03-11T00:02:38;1.63;;;0.75;;
24159;SDS011;62385;41.594;23.808;2023-03-11T00:05:05;0.60;;;0.52;;
24159;SDS011;62385;41.594;23.808;2023-03-11T00:07:32;2.20;;;1.10;;
24159;SDS011;62385;41.594;23.808;2023-03-11T00:09:59;0.55;;;0.50;;
24159;SDS011;62385;41.594;23.808;2023-03-11T00:12:25;0.68;;;0.30;;
24159;SDS011;62385;41.594;23.808;2023-03-11T00:14:50;0.85;;;0.73;;
24159;SDS011;62385;41.594;23.808;2023-03-11T00:17:16;1.13;;;0.95;;
24159;SDS011;62385;41.594;23.808;2023-03-11T00:19:41;0.82;;;0.50;;
24159;SDS011;62385;41.594;23.808;2023-03-11T00:22:07;0.82;;;0.65;;
24159;SDS011;62385;41.594;23.808;2023-03-11T00:24:33;0.38;;;0.38;;
24159;SDS011;62385;41.594;23.808;2023-03-11T00:26:58;0.88;;;0.50;;
24159;SDS011;62385;41.594;23.808;2023-03-11T00:29:24;1.00;;;0.57;;
24159;SDS011;62385;41.594;23.808;2023-03-11T00:31:50;0.73;;;0.60;;
24159;SDS011;62385;41.594;23.808;2023-03-11T00:34:16;0.63;;;0.63;;
24159;SDS011;62385;41.594;23.808;2023-03-11T00:36:42;1.63;;;0.57;;
24159;SDS011;62385;41.594;23.808;2023-03-11T00:39:07;1.15;;;0.60;;
24159;SDS011;62385;41.594;23.808;2023-03-11T00:41:35;0.35;;;0.30;;
24159;SDS011;62385;41.594;23.808;2023-03-11T00:44:01;1.95;;;0.90;;
24159;SDS011;62385;41.594;23.808;2023-03-11T00:46:28;1.73;;;0.90;;
24159;SDS011;62385;41.594;23.808;2023-03-11T00:48:55;3.40;;;0.80;;
24159;SDS011;62385;41.594;23.808;2023-03-11T00:51:22;1.98;;;0.65;;
24159;SDS011;62385;41.594;23.808;2023-03-11T00:53:47;0.90;;;0.47;;
24159;SDS011;62385;41.594;23.808;2023-03-11T00:56:14;1.88;;;0.90;;
24159;SDS011;62385;41.594;23.808;2023-03-11T00:58:41;2.35;;;1.17;;
24159;SDS011;62385;41.594;23.808;2023-03-11T01:01:09;0.75;;;0.55;;
24159;SDS011;62385;41.594;23.808;2023-03-11T01:03:36;0.75;;;0.70;;
24159;SDS011;62385;41.594;23.808;2023-03-11T01:06:04;1.13;;;0.40;;
24159;SDS011;62385;41.594;23.808;2023-03-11T01:08:30;2.13;;;0.88;;
24159;SDS011;62385;41.594;23.808;2023-03-11T01:10:56;2.72;;;0.65;;
24159;SDS011;62385;41.594;23.808;2023-03-11T01:13:22;1.05;;;0.60;;
24159;SDS011;62385;41.594;23.808;2023-03-11T01:15:49;3.13;;;0.88;;
24159;SDS011;62385;41.594;23.808;2023-03-11T01:18:14;1.55;;;0.80;;
24159;SDS011;62385;41.594;23.808;2023-03-11T01:20:40;4.15;;;0.73;;
24159;SDS011;62385;41.594;23.808;2023-03-11T01:23:07;2.20;;;0.90;;
24159;SDS011;62385;41.594;23.808;2023-03-11T01:25:33;2.10;;;1.35;;
24159;SDS011;62385;41.594;23.808;2023-03-11T01:27:59;0.73;;;0.68;;
24159;SDS011;62385;41.594;23.808;2023-03-11T01:30:28;4.57;;;1.00;;
24159;SDS011;62385;41.594;23.808;2023-03-11T01:32:54;2.45;;;1.42;;
24159;SDS011;62385;41.594;23.808;2023-03-11T01:35:22;0.85;;;0.68;;
24159;SDS011;62385;41.594;23.808;2023-03-11T01:37:49;1.40;;;1.13;;
24159;SDS011;62385;41.594;23.808;2023-03-11T01:40:20;1.38;;;1.05;;
24159;SDS011;62385;41.594;23.808;2023-03-11T01:42:50;0.93;;;0.80;;
24159;SDS011;62385;41.594;23.808;2023-03-11T01:45:34;1.42;;;1.02;;
24159;SDS011;62385;41.594;23.808;2023-03-11T01:48:02;0.82;;;0.73;;
24159;SDS011;62385;41.594;23.808;2023-03-11T01:50:31;1.55;;;1.38;;
24159;SDS011;62385;41.594;23.808;2023-03-11T01:53:04;5.70;;;0.82;;
24159;SDS011;62385;41.594;23.808;2023-03-11T01:55:30;0.95;;;0.77;;
24159;SDS011;62385;41.594;23.808;2023-03-11T01:57:57;1.90;;;1.38;;
24159;SDS011;62385;41.594;23.808;2023-03-11T02:00:26;1.25;;;0.75;;
24159;SDS011;62385;41.594;23.808;2023-03-11T02:02:52;1.05;;;0.70;;
24159;SDS011;62385;41.594;23.808;2023-03-11T02:05:23;1.20;;;0.82;;
24159;SDS011;62385;41.594;23.808;2023-03-11T02:07:51;1.10;;;0.98;;
24159;SDS011;62385;41.594;23.808;2023-03-11T02:10:20;0.80;;;0.60;;
24159;SDS011;62385;41.594;23.808;2023-03-11T02:12:47;0.57;;;0.40;;
24159;SDS011;62385;41.594;23.808;2023-03-11T02:15:22;1.15;;;0.85;;
24159;SDS011;62385;41.594;23.808;2023-03-11T02:17:49;1.52;;;0.88;;
24159;SDS011;62385;41.594;23.808;2023-03-11T02:20:21;0.77;;;0.77;;
24159;SDS011;62385;41.594;23.808;2023-03-11T02:22:58;0.82;;;0.40;;
24159;SDS011;62385;41.594;23.808;2023-03-11T02:28:05;0.55;;;0.40;;
24159;SDS011;62385;41.594;23.808;2023-03-11T02:30:34;0.30;;;0.30;;
24159;SDS011;62385;41.594;23.808;2023-03-11T02:33:02;0.52;;;0.20;;
24159;SDS011;62385;41.594;23.808;2023-03-11T02:35:28;0.73;;;0.30;;
24159;SDS011;62385;41.594;23.808;2023-03-11T02:37:54;0.32;;;0.22;;
24159;SDS011;62385;41.594;23.808;2023-03-11T02:42:47;0.95;;;0.55;;
24159;SDS011;62385;41.594;23.808;2023-03-11T02:45:16;1.85;;;0.50;;
24159;SDS011;62385;41.594;23.808;2023-03-11T02:47:44;0.82;;;0.80;;
24159;SDS011;62385;41.594;23.808;2023-03-11T02:50:12;1.25;;;0.52;;
24159;SDS011;62385;41.594;23.808;2023-03-11T02:52:41;2.17;;;1.10;;
24159;SDS011;62385;41.594;23.808;2023-03-11T02:55:07;0.50;;;0.32;;
24159;SDS011;62385;41.594;23.808;2023-03-11T02:57:36;1.15;;;0.90;;
24159;SDS011;62385;41.594;23.808;2023-03-11T03:00:04;6.57;;;2.22;;
24159;SDS011;62385;41.594;23.808;2023-03-11T03:02:38;6.45;;;2.78;;
24159;SDS011;62385;41.594;23.808;2023-03-11T03:05:04;3.67;;;1.15;;
24159;SDS011;62385;41.594;23.808;2023-03-11T03:07:30;0.40;;;0.30;;
24159;SDS011;62385;41.594;23.808;2023-03-11T03:09:57;0.20;;;0.10;;
24159;SDS011;62385;41.594;23.808;2023-03-11T03:12:23;0.80;;;0.20;;
24159;SDS011;62385;41.594;23.808;2023-03-11T03:14:49;0.73;;;0.52;;
24159;SDS011;62385;41.594;23.808;2023-03-11T03:17:15;0.20;;;0.05;;
24159;SDS011;62385;41.594;23.808;2023-03-11T03:19:41;0.20;;;0.10;;
24159;SDS011;62385;41.594;23.808;2023-03-11T03:22:08;0.40;;;0.17;;
24159;SDS011;62385;41.594;23.808;2023-03-11T03:24:33;0.47;;;0.22;;
24159;SDS011;62385;41.594;23.808;2023-03-11T03:26:59;0.20;;;0.10;;
24159;SDS011;62385;41.594;23.808;2023-03-11T03:29:25;0.20;;;0.00;;
24159;SDS011;62385;41.594;23.808;2023-03-11T03:31:52;0.20;;;0.00;;
24159;SDS011;62385;41.594;23.808;2023-03-11T03:34:18;0.20;;;0.10;;
24159;SDS011;62385;41.594;23.808;2023-03-11T03:36:45;0.20;;;0.15;;
24159;SDS011;62385;41.594;23.808;2023-03-11T03:39:10;0.20;;;0.03;;
24159;SDS011;62385;41.594;23.808;2023-03-11T03:41:36;0.20;;;0.00;;
24159;SDS011;62385;41.594;23.808;2023-03-11T03:44:03;1.23;;;0.40;;
24159;SDS011;62385;41.594;23.808;2023-03-11T03:46:31;2.15;;;0.28;;
24159;SDS011;62385;41.594;23.808;2023-03-11T03:48:57;0.30;;;0.20;;
24159;SDS011;62385;41.594;23.808;2023-03-11T03:51:24;1.85;;;0.38;;
24159;SDS011;62385;41.594;23.808;2023-03-11T03:54:18;0.93;;;0.25;;
24159;SDS011;62385;41.594;23.808;2023-03-11T03:56:46;1.55;;;0.57;;
24159;SDS011;62385;41.594;23.808;2023-03-11T03:59:11;1.45;;;0.52;;
24159;SDS011;62385;41.594;23.808;2023-03-11T04:01:42;0.20;;;0.10;;
24159;SDS011;62385;41.594;23.808;2023-03-11T04:04:09;0.20;;;0.03;;
24159;SDS011;62385;41.594;23.808;2023-03-11T04:06:34;3.78;;;0.55;;
24159;SDS011;62385;41.594;23.808;2023-03-11T04:09:03;1.92;;;0.68;;
24159;SDS011;62385;41.594;23.808;2023-03-11T04:11:33;0.55;;;0.45;;
24159;SDS011;62385;41.594;23.808;2023-03-11T04:14:01;0.50;;;0.10;;
24159;SDS011;62385;41.594;23.808;2023-03-11T04:16:28;0.30;;;0.20;;
24159;SDS011;62385;41.594;23.808;2023-03-11T04:19:00;0.22;;;0.10;;
24159;SDS011;62385;41.594;23.808;2023-03-11T04:21:27;0.38;;;0.30;;
24159;SDS011;62385;41.594;23.808;2023-03-11T04:23:53;0.20;;;0.13;;
24159;SDS011;62385;41.594;23.808;2023-03-11T04:26:22;1.80;;;0.70;;
24159;SDS011;62385;41.594;23.808;2023-03-11T04:28:48;4.80;;;1.55;;
24159;SDS011;62385;41.594;23.808;2023-03-11T04:31:14;1.75;;;0.50;;
24159;SDS011;62385;41.594;23.808;2023-03-11T04:33:40;0.25;;;0.15;;
24159;SDS011;62385;41.594;23.808;2023-03-11T04:36:08;0.50;;;0.28;;
24159;SDS011;62385;41.594;23.808;2023-03-11T04:38:35;3.65;;;0.73;;
24159;SDS011;62385;41.594;23.808;2023-03-11T04:41:02;6.80;;;1.92;;
24159;SDS011;62385;41.594;23.808;2023-03-11T04:43:28;0.90;;;0.50;;
24159;SDS011;62385;41.594;23.808;2023-03-11T04:45:54;1.33;;;0.65;;
24159;SDS011;62385;41.594;23.808;2023-03-11T04:48:20;3.90;;;1.83;;
24159;SDS011;62385;41.594;23.808;2023-03-11T04:50:46;1.45;;;1.17;;
24159;SDS011;62385;41.594;23.808;2023-03-11T04:53:13;1.15;;;0.82;;
24159;SDS011;62385;41.594;23.808;2023-03-11T04:55:39;2.70;;;1.08;;
24159;SDS011;62385;41.594;23.808;2023-03-11T04:58:06;2.08;;;1.27;;
24159;SDS011;62385;41.594;23.808;2023-03-11T05:00:34;0.88;;;0.77;;
24159;SDS011;62385;41.594;23.808;2023-03-11T05:03:07;0.85;;;0.45;;
24159;SDS011;62385;41.594;23.808;2023-03-11T05:05:34;2.35;;;1.10;;
24159;SDS011;62385;41.594;23.808;2023-03-11T05:08:00;3.15;;;1.52;;
24159;SDS011;62385;41.594;23.808;2023-03-11T05:10:28;2.15;;;1.95;;
24159;SDS011;62385;41.594;23.808;2023-03-11T05:12:56;3.65;;;2.13;;
24159;SDS011;62385;41.594;23.808;2023-03-11T05:15:26;1.33;;;1.23;;
24159;SDS011;62385;41.594;23.808;2023-03-11T05:17:53;1.27;;;1.10;;
24159;SDS011;62385;41.594;23.808;2023-03-11T05:20:19;1.85;;;1.20;;
24159;SDS011;62385;41.594;23.808;2023-03-11T05:22:45;1.50;;;0.70;;
24159;SDS011;62385;41.594;23.808;2023-03-11T05:25:11;4.13;;;1.90;;
24159;SDS011;62385;41.594;23.808;2023-03-11T05:27:37;6.20;;;2.60;;
24159;SDS011;62385;41.594;23.808;2023-03-11T05:30:04;8.60;;;4.45;;
24159;SDS011;62385;41.594;23.808;2023-03-11T05:32:33;9.02;;;4.72;;
24159;SDS011;62385;41.594;23.808;2023-03-11T05:34:59;8.00;;;3.25;;
24159;SDS011;62385;41.594;23.808;2023-03-11T05:37:25;14.38;;;6.10;;
24159;SDS011;62385;41.594;23.808;2023-03-11T05:39:52;14.65;;;5.35;;
24159;SDS011;62385;41.594;23.808;2023-03-11T05:42:20;7.40;;;4.20;;
24159;SDS011;62385;41.594;23.808;2023-03-11T05:44:47;7.28;;;5.22;;
24159;SDS011;62385;41.594;23.808;2023-03-11T05:47:13;4.53;;;3.47;;
24159;SDS011;62385;41.594;23.808;2023-03-11T05:49:41;5.80;;;3.35;;
24159;SDS011;62385;41.594;23.808;2023-03-11T05:52:07;11.35;;;3.67;;
24159;SDS011;62385;41.594;23.808;2023-03-11T05:54:34;3.22;;;1.33;;
24159;SDS011;62385;41.594;23.808;2023-03-11T05:57:00;6.22;;;2.20;;
24159;SDS011;62385;41.594;23.808;2023-03-11T05:59:26;7.25;;;5.20;;
24159;SDS011;62385;41.594;23.808;2023-03-11T06:01:57;8.00;;;4.28;;
24159;SDS011;62385;41.594;23.808;2023-03-11T06:04:23;8.93;;;2.97;;
24159;SDS011;62385;41.594;23.808;2023-03-11T06:06:49;5.63;;;4.05;;
24159;SDS011;62385;41.594;23.808;2023-03-11T06:09:17;6.00;;;4.70;;
24159;SDS011;62385;41.594;23.808;2023-03-11T06:11:43;5.50;;;3.05;;
24159;SDS011;62385;41.594;23.808;2023-03-11T06:14:10;2.67;;;2.20;;
24159;SDS011;62385;41.594;23.808;2023-03-11T06:16:38;5.80;;;3.50;;
24159;SDS011;62385;41.594;23.808;2023-03-11T06:19:04;9.13;;;4.50;;
24159;SDS011;62385;41.594;23.808;2023-03-11T06:21:34;9.48;;;5.47;;
24159;SDS011;62385;41.594;23.808;2023-03-11T06:24:00;6.15;;;3.70;;
24159;SDS011;62385;41.594;23.808;2023-03-11T06:26:27;3.35;;;2.83;;
24159;SDS011;62385;41.594;23.808;2023-03-11T06:28:53;2.65;;;1.73;;
24159;SDS011;62385;41.594;23.808;2023-03-11T06:31:20;13.48;;;5.32;;
24159;SDS011;62385;41.594;23.808;2023-03-11T06:33:49;8.45;;;4.07;;
24159;SDS011;62385;41.594;23.808;2023-03-11T06:36:16;3.70;;;2.72;;
24159;SDS011;62385;41.594;23.808;2023-03-11T06:38:45;3.83;;;2.20;;
24159;SDS011;62385;41.594;23.808;2023-03-11T06:41:13;4.43;;;2.97;;
24159;SDS011;62385;41.594;23.808;2023-03-11T06:43:40;4.25;;;2.15;;
24159;SDS011;62385;41.594;23.808;2023-03-11T06:46:10;3.30;;;1.83;;
24159;SDS011;62385;41.594;23.808;2023-03-11T06:48:38;1.42;;;0.90;;
24159;SDS011;62385;41.594;23.808;2023-03-11T06:51:04;1.25;;;0.85;;
24159;SDS011;62385;41.594;23.808;2023-03-11T06:53:31;2.78;;;1.48;;
24159;SDS011;62385;41.594;23.808;2023-03-11T06:56:02;1.45;;;0.75;;
24159;SDS011;62385;41.594;23.808;2023-03-11T06:58:52;0.40;;;0.20;;
24159;SDS011;62385;41.594;23.808;2023-03-11T07:01:20;1.85;;;0.52;;
24159;SDS011;62385;41.594;23.808;2023-03-11T07:03:52;1.60;;;0.85;;
24159;SDS011;62385;41.594;23.808;2023-03-11T07:06:23;1.05;;;0.77;;
24159;SDS011;62385;41.594;23.808;2023-03-11T07:08:55;1.98;;;1.38;;
24159;SDS011;62385;41.594;23.808;2023-03-11T07:11:25;4.32;;;1.27;;
24159;SDS011;62385;41.594;23.808;2023-03-11T07:13:57;3.22;;;0.45;;
24159;SDS011;62385;41.594;23.808;2023-03-11T07:16:25;2.05;;;0.85;;
24159;SDS011;62385;41.594;23.808;2023-03-11T07:18:58;1.38;;;0.90;;
24159;SDS011;62385;41.594;23.808;2023-03-11T07:21:27;1.08;;;0.82;;
24159;SDS011;62385;41.594;23.808;2023-03-11T07:23:56;1.02;;;0.68;;
24159;SDS011;62385;41.594;23.808;2023-03-11T07:26:23;5.03;;;2.30;;
24159;SDS011;62385;41.594;23.808;2023-03-11T07:28:50;9.40;;;5.72;;
24159;SDS011;62385;41.594;23.808;2023-03-11T07:31:19;3.85;;;2.78;;
24159;SDS011;62385;41.594;23.808;2023-03-11T07:33:47;2.17;;;1.98;;
24159;SDS011;62385;41.594;23.808;2023-03-11T07:36:15;2.47;;;1.92;;
24159;SDS011;62385;41.594;23.808;2023-03-11T07:39:04;1.40;;;0.80;;
24159;SDS011;62385;41.594;23.808;2023-03-11T07:41:31;0.22;;;0.13;;
24159;SDS011;62385;41.594;23.808;2023-03-11T07:43:58;7.85;;;3.20;;
24159;SDS011;62385;41.594;23.808;2023-03-11T07:46:25;8.88;;;2.75;;
24159;SDS011;62385;41.594;23.808;2023-03-11T07:48:53;11.25;;;5.03;;
24159;SDS011;62385;41.594;23.808;2023-03-11T07:51:23;6.18;;;2.10;;
24159;SDS011;62385;41.594;23.808;2023-03-11T07:53:51;16.80;;;7.22;;
24159;SDS011;62385;41.594;23.808;2023-03-11T07:56:18;1.92;;;1.60;;
24159;SDS011;62385;41.594;23.808;2023-03-11T07:58:49;0.50;;;0.43;;
24159;SDS011;62385;41.594;23.808;2023-03-11T08:01:16;1.00;;;0.88;;
24159;SDS011;62385;41.594;23.808;2023-03-11T08:03:46;1.60;;;0.90;;
24159;SDS011;62385;41.594;23.808;2023-03-11T08:08:41;8.55;;;2.67;;
24159;SDS011;62385;41.594;23.808;2023-03-11T08:11:07;1.67;;;0.70;;
24159;SDS011;62385;41.594;23.808;2023-03-11T08:13:33;15.35;;;6.13;;
24159;SDS011;62385;41.594;23.808;2023-03-11T08:16:01;4.47;;;3.05;;
24159;SDS011;62385;41.594;23.808;2023-03-11T08:18:28;3.67;;;1.38;;
24159;SDS011;62385;41.594;23.808;2023-03-11T08:20:55;4.80;;;3.42;;
24159;SDS011;62385;41.594;23.808;2023-03-11T08:23:21;8.02;;;3.10;;
24159;SDS011;62385;41.594;23.808;2023-03-11T08:25:46;10.70;;;4.55;;
24159;SDS011;62385;41.594;23.808;2023-03-11T08:28:12;2.00;;;1.38;;
24159;SDS011;62385;41.594;23.808;2023-03-11T08:30:38;2.50;;;1.10;;
24159;SDS011;62385;41.594;23.808;2023-03-11T08:33:05;3.42;;;1.67;;
24159;SDS011;62385;41.594;23.808;2023-03-11T08:35:30;3.88;;;1.35;;
24159;SDS011;62385;41.594;23.808;2023-03-11T08:37:56;2.63;;;1.75;;
24159;SDS011;62385;41.594;23.808;2023-03-11T08:40:22;1.00;;;0.90;;
24159;SDS011;62385;41.594;23.808;2023-03-11T08:42:49;5.70;;;3.08;;
24159;SDS011;62385;41.594;23.808;2023-03-11T08:45:15;3.80;;;1.98;;
24159;SDS011;62385;41.594;23.808;2023-03-11T08:47:40;2.35;;;1.35;;
24159;SDS011;62385;41.594;23.808;2023-03-11T08:50:07;1.10;;;0.90;;
24159;SDS011;62385;41.594;23.808;2023-03-11T08:52:38;0.98;;;0.70;;
24159;SDS011;62385;41.594;23.808;2023-03-11T08:55:04;0.70;;;0.60;;
24159;SDS011;62385;41.594;23.808;2023-03-11T08:57:33;0.68;;;0.30;;
24159;SDS011;62385;41.594;23.808;2023-03-11T08:59:59;0.75;;;0.50;;
24159;SDS011;62385;41.594;23.808;2023-03-11T09:02:24;1.90;;;1.20;;
24159;SDS011;62385;41.594;23.808;2023-03-11T09:04:51;1.83;;;1.05;;
24159;SDS011;62385;41.594;23.808;2023-03-11T09:07:17;0.30;;;0.17;;
24159;SDS011;62385;41.594;23.808;2023-03-11T09:09:43;1.00;;;0.90;;
24159;SDS011;62385;41.594;23.808;2023-03-11T09:12:09;0.50;;;0.22;;
24159;SDS011;62385;41.594;23.808;2023-03-11T09:14:40;0.22;;;0.10;;
24159;SDS011;62385;41.594;23.808;2023-03-11T09:17:07;0.30;;;0.30;;
24159;SDS011;62385;41.594;23.808;2023-03-11T09:19:34;0.47;;;0.20;;
24159;SDS011;62385;41.594;23.808;2023-03-11T09:22:02;0.20;;;0.05;;
24159;SDS011;62385;41.594;23.808;2023-03-11T09:24:29;0.20;;;0.10;;
24159;SDS011;62385;41.594;23.808;2023-03-11T09:26:57;0.40;;;0.25;;
24159;SDS011;62385;41.594;23.808;2023-03-11T09:29:23;0.35;;;0.10;;
24159;SDS011;62385;41.594;23.808;2023-03-11T09:31:48;0.40;;;0.25;;
24159;SDS011;62385;41.594;23.808;2023-03-11T09:34:14;1.65;;;0.32;;
24159;SDS011;62385;41.594;23.808;2023-03-11T09:36:39;0.20;;;0.10;;
24159;SDS011;62385;41.594;23.808;2023-03-11T09:39:06;0.30;;;0.10;;
24159;SDS011;62385;41.594;23.808;2023-03-11T09:55:25;0.50;;;0.30;;
24159;SDS011;62385;41.594;23.808;2023-03-11T09:57:52;5.28;;;1.80;;
24159;SDS011;62385;41.594;23.808;2023-03-11T10:00:20;0.73;;;0.52;;
24159;SDS011;62385;41.594;23.808;2023-03-11T10:02:48;0.20;;;0.10;;
24159;SDS011;62385;41.594;23.808;2023-03-11T10:05:16;0.20;;;0.15;;
24159;SDS011;62385;41.594;23.808;2023-03-11T10:08:49;0.40;;;0.17;;
24159;SDS011;62385;41.594;23.808;2023-03-11T10:14:05;0.20;;;0.00;;
24159;SDS011;62385;41.594;23.808;2023-03-11T10:16:55;5.15;;;0.60;;
24159;SDS011;62385;41.594;23.808;2023-03-11T10:25:10;1.00;;;0.40;;
24159;SDS011;62385;41.594;23.808;2023-03-11T10:27:42;1.58;;;1.23;;
24159;SDS011;62385;41.594;23.808;2023-03-11T10:35:43;0.77;;;0.43;;
24159;SDS011;62385;41.594;23.808;2023-03-11T10:38:19;1.50;;;1.10;;
24159;SDS011;62385;41.594;23.808;2023-03-11T10:40:49;0.40;;;0.40;;
24159;SDS011;62385;41.594;23.808;2023-03-11T10:43:20;1.13;;;0.70;;
24159;SDS011;62385;41.594;23.808;2023-03-11T10:45:51;0.30;;;0.20;;
24159;SDS011;62385;41.594;23.808;2023-03-11T10:48:18;0.20;;;0.20;;
24159;SDS011;62385;41.594;23.808;2023-03-11T10:53:21;0.20;;;0.15;;
24159;SDS011;62385;41.594;23.808;2023-03-11T10:55:50;0.30;;;0.20;;
24159;SDS011;62385;41.594;23.808;2023-03-11T10:58:22;0.55;;;0.50;;
24159;SDS011;62385;41.594;23.808;2023-03-11T11:03:29;0.80;;;0.40;;
24159;SDS011;62385;41.594;23.808;2023-03-11T11:05:56;0.40;;;0.20;;
24159;SDS011;62385;41.594;23.808;2023-03-11T11:08:33;0.20;;;0.10;;
24159;SDS011;62385;41.594;23.808;2023-03-11T11:11:00;0.20;;;0.10;;
24159;SDS011;62385;41.594;23.808;2023-03-11T11:13:29;0.20;;;0.15;;
24159;SDS011;62385;41.594;23.808;2023-03-11T11:18:31;0.28;;;0.10;;
24159;SDS011;62385;41.594;23.808;2023-03-11T11:21:01;0.77;;;0.38;;
24159;SDS011;62385;41.594;23.808;2023-03-11T11:23:48;0.20;;;0.10;;
24159;SDS011;62385;41.594;23.808;2023-03-11T11:26:25;0.20;;;0.00;;
24159;SDS011;62385;41.594;23.808;2023-03-11T11:31:39;0.20;;;0.10;;
24159;SDS011;62385;41.594;23.808;2023-03-11T11:36:56;0.30;;;0.20;;
24159;SDS011;62385;41.594;23.808;2023-03-11T11:39:25;0.28;;;0.20;;
24159;SDS011;62385;41.594;23.808;2023-03-11T11:41:53;2.15;;;0.20;;
24159;SDS011;62385;41.594;23.808;2023-03-11T11:44:21;0.20;;;0.15;;
24159;SDS011;62385;41.594;23.808;2023-03-11T11:46:55;0.50;;;0.30;;
24159;SDS011;62385;41.594;23.808;2023-03-11T11:49:28;0.25;;;0.10;;
24159;SDS011;62385;41.594;23.808;2023-03-11T11:51:59;0.45;;;0.22;;
24159;SDS011;62385;41.594;23.808;2023-03-11T11:54:41;0.20;;;0.10;;
24159;SDS011;62385;41.594;23.808;2023-03-11T11:57:32;0.35;;;0.32;;
24159;SDS011;62385;41.594;23.808;2023-03-11T11:59:58;0.20;;;0.20;;
24159;SDS011;62385;41.594;23.808;2023-03-11T12:02:46;0.30;;;0.20;;
24159;SDS011;62385;41.594;23.808;2023-03-11T12:05:27;0.65;;;0.22;;
24159;SDS011;62385;41.594;23.808;2023-03-11T12:08:13;0.20;;;0.10;;
24159;SDS011;62385;41.594;23.808;2023-03-11T12:16:29;0.20;;;0.05;;
24159;SDS011;62385;41.594;23.808;2023-03-11T12:27:28;0.20;;;0.20;;
24159;SDS011;62385;41.594;23.808;2023-03-11T12:30:16;0.20;;;0.13;;
24159;SDS011;62385;41.594;23.808;2023-03-11T12:32:51;0.20;;;0.17;;
24159;SDS011;62385;41.594;23.808;2023-03-11T12:38:05;0.20;;;0.10;;
24159;SDS011;62385;41.594;23.808;2023-03-11T12:43:22;0.73;;;0.50;;
24159;SDS011;62385;41.594;23.808;2023-03-11T12:45:52;0.40;;;0.22;;
24159;SDS011;62385;41.594;23.808;2023-03-11T12:48:30;0.20;;;0.10;;
24159;SDS011;62385;41.594;23.808;2023-03-11T12:50:57;0.45;;;0.30;;
24159;SDS011;62385;41.594;23.808;2023-03-11T12:56:23;0.20;;;0.15;;
24159;SDS011;62385;41.594;23.808;2023-03-11T13:04:21;0.20;;;0.10;;
24159;SDS011;62385;41.594;23.808;2023-03-11T13:09:31;0.20;;;0.10;;
24159;SDS011;62385;41.594;23.808;2023-03-11T13:11:57;0.50;;;0.20;;
24159;SDS011;62385;41.594;23.808;2023-03-11T13:14:27;0.32;;;0.22;;
24159;SDS011;62385;41.594;23.808;2023-03-11T13:17:18;0.43;;;0.40;;
24159;SDS011;62385;41.594;23.808;2023-03-11T13:19:54;1.10;;;0.75;;
24159;SDS011;62385;41.594;23.808;2023-03-11T13:25:32;3.20;;;0.73;;
24159;SDS011;62385;41.594;23.808;2023-03-11T13:28:06;0.38;;;0.28;;
24159;SDS011;62385;41.594;23.808;2023-03-11T13:30:43;0.40;;;0.20;;
24159;SDS011;62385;41.594;23.808;2023-03-11T13:33:24;0.63;;;0.22;;
24159;SDS011;62385;41.594;23.808;2023-03-11T13:36:05;1.05;;;0.22;;
24159;SDS011;62385;41.594;23.808;2023-03-11T13:41:21;0.38;;;0.15;;
24159;SDS011;62385;41.594;23.808;2023-03-11T13:43:51;0.20;;;0.00;;
24159;SDS011;62385;41.594;23.808;2023-03-11T13:46:27;0.30;;;0.20;;
24159;SDS011;62385;41.594;23.808;2023-03-11T13:51:57;4.15;;;0.47;;
24159;SDS011;62385;41.594;23.808;2023-03-11T13:54:29;0.40;;;0.13;;
24159;SDS011;62385;41.594;23.808;2023-03-11T13:57:00;0.40;;;0.20;;
24159;SDS011;62385;41.594;23.808;2023-03-11T13:59:28;0.30;;;0.20;;
24159;SDS011;62385;41.594;23.808;2023-03-11T14:01:56;0.70;;;0.70;;
24159;SDS011;62385;41.594;23.808;2023-03-11T14:04:25;1.75;;;1.05;;
24159;SDS011;62385;41.594;23.808;2023-03-11T14:06:53;0.20;;;0.10;;
24159;SDS011;62385;41.594;23.808;2023-03-11T14:09:20;1.98;;;1.02;;
24159;SDS011;62385;41.594;23.808;2023-03-11T14:11:48;0.20;;;0.10;;
24159;SDS011;62385;41.594;23.808;2023-03-11T14:14:26;1.17;;;0.17;;
24159;SDS011;62385;41.594;23.808;2023-03-11T14:16:55;3.03;;;1.02;;
24159;SDS011;62385;41.594;23.808;2023-03-11T14:19:21;3.33;;;1.20;;
24159;SDS011;62385;41.594;23.808;2023-03-11T14:21:48;6.97;;;2.85;;
24159;SDS011;62385;41.594;23.808;2023-03-11T14:24:26;1.95;;;1.35;;
24159;SDS011;62385;41.594;23.808;2023-03-11T14:26:54;7.57;;;3.75;;
24159;SDS011;62385;41.594;23.808;2023-03-11T14:29:31;5.78;;;3.03;;
24159;SDS011;62385;41.594;23.808;2023-03-11T14:32:13;3.88;;;1.85;;
24159;SDS011;62385;41.594;23.808;2023-03-11T14:34:40;1.10;;;0.93;;
24159;SDS011;62385;41.594;23.808;2023-03-11T14:37:19;1.85;;;1.05;;
24159;SDS011;62385;41.594;23.808;2023-03-11T14:39:59;2.80;;;0.85;;
24159;SDS011;62385;41.594;23.808;2023-03-11T14:42:31;2.03;;;1.27;;
24159;SDS011;62385;41.594;23.808;2023-03-11T14:47:36;1.63;;;0.93;;
24159;SDS011;62385;41.594;23.808;2023-03-11T14:50:04;2.20;;;0.68;;
24159;SDS011;62385;41.594;23.808;2023-03-11T14:52:41;1.75;;;1.45;;
24159;SDS011;62385;41.594;23.808;2023-03-11T14:55:13;1.45;;;1.35;;
24159;SDS011;62385;41.594;23.808;2023-03-11T14:57:44;5.32;;;2.25;;
24159;SDS011;62385;41.594;23.808;2023-03-11T15:00:15;4.30;;;2.67;;
24159;SDS011;62385;41.594;23.808;2023-03-11T15:05:29;6.53;;;4.47;;
24159;SDS011;62385;41.594;23.808;2023-03-11T15:08:06;2.60;;;2.40;;
24159;SDS011;62385;41.594;23.808;2023-03-11T15:10:32;4.63;;;2.42;;
24159;SDS011;62385;41.594;23.808;2023-03-11T15:13:06;3.40;;;1.08;;
24159;SDS011;62385;41.594;23.808;2023-03-11T15:15:39;12.88;;;7.65;;
24159;SDS011;62385;41.594;23.808;2023-03-11T15:18:24;10.77;;;7.50;;
24159;SDS011;62385;41.594;23.808;2023-03-11T15:20:59;12.40;;;7.13;;
24159;SDS011;62385;41.594;23.808;2023-03-11T15:23:29;13.52;;;6.40;;
24159;SDS011;62385;41.594;23.808;2023-03-11T15:25:56;8.43;;;3.95;;
24159;SDS011;62385;41.594;23.808;2023-03-11T15:28:29;7.63;;;3.13;;
24159;SDS011;62385;41.594;23.808;2023-03-11T15:37:05;7.63;;;2.05;;
24159;SDS011;62385;41.594;23.808;2023-03-11T15:39:45;3.15;;;1.88;;
24159;SDS011;62385;41.594;23.808;2023-03-11T15:42:14;10.80;;;3.83;;
24159;SDS011;62385;41.594;23.808;2023-03-11T15:44:48;3.75;;;1.88;;
24159;SDS011;62385;41.594;23.808;2023-03-11T15:47:19;4.05;;;3.05;;
24159;SDS011;62385;41.594;23.808;2023-03-11T15:49:46;4.78;;;2.15;;
24159;SDS011;62385;41.594;23.808;2023-03-11T15:52:13;2.22;;;1.95;;
24159;SDS011;62385;41.594;23.808;2023-03-11T15:54:40;13.45;;;6.18;;
24159;SDS011;62385;41.594;23.808;2023-03-11T15:57:07;13.50;;;5.55;;
24159;SDS011;62385;41.594;23.808;2023-03-11T15:59:34;14.57;;;5.00;;
24159;SDS011;62385;41.594;23.808;2023-03-11T16:02:02;21.33;;;6.78;;
24159;SDS011;62385;41.594;23.808;2023-03-11T16:04:28;17.80;;;8.15;;
24159;SDS011;62385;41.594;23.808;2023-03-11T16:06:54;15.02;;;6.13;;
24159;SDS011;62385;41.594;23.808;2023-03-11T16:09:19;3.83;;;2.38;;
24159;SDS011;62385;41.594;23.808;2023-03-11T16:11:45;7.22;;;2.78;;
24159;SDS011;62385;41.594;23.808;2023-03-11T16:14:15;2.28;;;2.08;;
24159;SDS011;62385;41.594;23.808;2023-03-11T16:16:43;7.97;;;5.05;;
24159;SDS011;62385;41.594;23.808;2023-03-11T16:19:09;14.30;;;8.77;;
24159;SDS011;62385;41.594;23.808;2023-03-11T16:21:39;15.32;;;6.57;;
24159;SDS011;62385;41.594;23.808;2023-03-11T16:24:10;9.68;;;4.47;;